createdAt,value
2022-10-23T00:00:19.467Z,15.32
2022-10-23T00:02:52.353Z,15.32
2022-10-23T00:05:20.356Z,15.20
2022-10-23T00:07:53.898Z,15.21
2022-10-23T00:10:21.052Z,15.32
2022-10-23T00:12:47.998Z,15.31
2022-10-23T00:15:15.122Z,15.33
2022-10-23T00:17:42.107Z,15.33
2022-10-23T00:20:09.646Z,15.32
2022-10-23T00:22:36.777Z,15.32
2022-10-23T00:25:07.996Z,15.31
2022-10-23T00:27:34.861Z,15.31
2022-10-23T00:30:02.014Z,15.30
2022-10-23T00:32:28.994Z,15.30
2022-10-23T00:34:55.916Z,15.30
2022-10-23T00:37:22.717Z,15.30
2022-10-23T00:39:49.590Z,15.17
2022-10-23T00:42:17.458Z,15.28
2022-10-23T00:44:44.178Z,15.29
2022-10-23T00:47:11.574Z,15.25
2022-10-23T00:49:40.707Z,15.28
2022-10-23T00:52:10.459Z,15.28
2022-10-23T00:54:40.681Z,15.28
2022-10-23T00:57:11.552Z,15.29
2022-10-23T00:59:38.503Z,15.27
2022-10-23T01:02:06.696Z,15.18
2022-10-23T01:04:33.633Z,15.30
2022-10-23T01:07:03.604Z,15.29
2022-10-23T01:09:48.601Z,15.32
2022-10-23T01:12:16.545Z,15.30
2022-10-23T01:14:52.225Z,15.27
2022-10-23T01:17:31.103Z,15.26
2022-10-23T01:20:25.530Z,15.27
2022-10-23T01:23:17.462Z,15.25
2022-10-23T01:26:07.310Z,15.26
2022-10-23T01:28:43.946Z,15.24
2022-10-23T01:31:13.745Z,15.24
2022-10-23T01:33:47.498Z,15.23
2022-10-23T01:36:19.331Z,15.23
2022-10-23T01:39:07.715Z,15.25
2022-10-23T01:41:44.620Z,15.10
2022-10-23T01:44:22.273Z,15.23
2022-10-23T01:46:49.635Z,15.22
2022-10-23T01:49:16.669Z,15.24
2022-10-23T01:51:46.787Z,15.27
2022-10-23T01:54:13.912Z,15.26
2022-10-23T01:56:43.954Z,15.27
2022-10-23T01:59:13.433Z,15.28
2022-10-23T02:01:42.141Z,15.28
2022-10-23T02:04:10.135Z,15.29
2022-10-23T02:06:37.000Z,15.29
2022-10-23T02:09:04.943Z,15.30
2022-10-23T02:11:31.928Z,15.31
2022-10-23T02:14:29.660Z,15.31
2022-10-23T02:16:57.991Z,15.28
2022-10-23T02:19:43.008Z,15.30
2022-10-23T02:22:31.328Z,15.29
2022-10-23T02:25:09.065Z,15.28
2022-10-23T02:27:47.247Z,15.28
2022-10-23T02:30:16.273Z,15.26
2022-10-23T02:32:49.264Z,15.29
2022-10-23T02:35:18.589Z,15.16
2022-10-23T02:37:55.435Z,15.31
2022-10-23T02:40:30.839Z,15.30
2022-10-23T02:42:59.654Z,15.30
2022-10-23T02:48:18.661Z,15.30
2022-10-23T02:51:07.832Z,15.30
2022-10-23T02:53:40.651Z,15.30
2022-10-23T02:56:26.323Z,15.31
2022-10-23T02:59:00.643Z,15.30
2022-10-23T03:01:36.468Z,15.29
2022-10-23T03:04:03.852Z,15.30
2022-10-23T03:06:32.564Z,15.30
2022-10-23T03:09:04.933Z,15.31
2022-10-23T03:11:31.825Z,15.31
2022-10-23T03:13:58.645Z,15.32
2022-10-23T03:16:25.607Z,15.31
2022-10-23T03:18:54.809Z,15.31
2022-10-23T03:21:21.820Z,15.31
2022-10-23T03:23:52.360Z,15.31
2022-10-23T03:26:26.341Z,15.29
2022-10-23T03:28:53.477Z,15.30
2022-10-23T03:31:21.733Z,15.30
2022-10-23T03:33:54.089Z,15.30
2022-10-23T03:36:21.902Z,15.30
2022-10-23T03:38:48.841Z,15.30
2022-10-23T03:41:15.853Z,15.30
2022-10-23T03:43:42.725Z,15.30
2022-10-23T03:46:12.682Z,15.29
2022-10-23T03:48:39.607Z,15.29
2022-10-23T03:51:06.863Z,15.29
2022-10-23T03:53:34.017Z,15.30
2022-10-23T03:56:03.614Z,15.30
2022-10-23T03:58:31.539Z,15.27
2022-10-23T04:00:58.649Z,15.17
2022-10-23T04:03:25.625Z,15.29
2022-10-23T04:05:52.577Z,15.19
2022-10-23T04:08:21.723Z,15.29
2022-10-23T04:10:51.688Z,15.30
2022-10-23T04:13:21.794Z,15.19
2022-10-23T04:15:49.695Z,15.28
2022-10-23T04:18:17.079Z,15.28
2022-10-23T04:20:44.197Z,15.28
2022-10-23T04:23:11.198Z,15.27
2022-10-23T04:25:41.012Z,15.27
2022-10-23T04:28:08.509Z,15.25
2022-10-23T04:30:38.449Z,15.24
2022-10-23T04:33:05.887Z,15.24
2022-10-23T04:35:33.680Z,15.25
2022-10-23T04:38:00.507Z,15.24
2022-10-23T04:40:27.346Z,15.23
2022-10-23T04:42:54.939Z,15.23
2022-10-23T04:45:22.161Z,15.09
2022-10-23T04:47:49.126Z,15.20
2022-10-23T04:50:16.906Z,15.21
2022-10-23T04:53:02.073Z,15.20
2022-10-23T04:55:37.715Z,15.12
2022-10-23T04:58:13.306Z,15.17
2022-10-23T05:00:41.314Z,15.20
2022-10-23T05:03:09.226Z,15.19
2022-10-23T05:05:40.043Z,15.18
2022-10-23T05:08:28.192Z,15.16
2022-10-23T05:11:13.628Z,15.17
2022-10-23T05:13:44.892Z,15.16
2022-10-23T05:16:13.145Z,15.16
2022-10-23T05:18:45.462Z,15.18
2022-10-23T05:21:16.342Z,15.15
2022-10-23T05:23:43.544Z,15.15
2022-10-23T05:26:10.439Z,15.14
2022-10-23T05:28:38.979Z,15.13
2022-10-23T05:31:05.987Z,15.12
2022-10-23T05:33:35.385Z,15.11
2022-10-23T05:36:02.281Z,15.11
2022-10-23T05:38:29.753Z,15.10
2022-10-23T05:40:56.727Z,15.11
2022-10-23T05:43:24.045Z,15.09
2022-10-23T05:46:06.886Z,15.04
2022-10-23T05:48:52.524Z,15.07
2022-10-23T05:51:23.236Z,14.96
2022-10-23T05:53:58.353Z,15.07
2022-10-23T05:56:34.352Z,15.07
2022-10-23T05:59:07.885Z,15.07
2022-10-23T06:02:00.678Z,15.06
2022-10-23T06:04:42.225Z,15.06
2022-10-23T06:07:18.096Z,15.06
2022-10-23T06:09:46.247Z,15.04
2022-10-23T06:12:13.333Z,15.06
2022-10-23T06:14:43.052Z,15.04
2022-10-23T06:17:10.174Z,14.95
2022-10-23T06:19:41.749Z,15.04
2022-10-23T06:22:08.652Z,15.05
2022-10-23T06:24:52.820Z,15.04
2022-10-23T06:27:24.519Z,15.05
2022-10-23T06:29:51.443Z,15.04
2022-10-23T06:32:18.722Z,15.03
2022-10-23T06:34:57.876Z,15.04
2022-10-23T06:37:25.927Z,15.04
2022-10-23T06:40:05.935Z,14.92
2022-10-23T06:42:58.834Z,15.04
2022-10-23T06:45:55.147Z,15.04
2022-10-23T06:48:54.264Z,15.04
2022-10-23T06:51:29.592Z,15.05
2022-10-23T06:53:56.995Z,15.07
2022-10-23T06:56:49.954Z,15.06
2022-10-23T06:59:30.333Z,15.08
2022-10-23T07:01:57.399Z,15.06
2022-10-23T07:04:24.290Z,15.11
2022-10-23T07:06:51.206Z,15.11
2022-10-23T07:09:24.645Z,15.11
2022-10-23T07:11:51.691Z,15.13
2022-10-23T07:14:21.071Z,15.17
2022-10-23T07:16:48.009Z,15.16
2022-10-23T07:19:15.006Z,15.16
2022-10-23T07:21:56.144Z,15.14
2022-10-23T07:24:48.323Z,15.17
2022-10-23T07:27:26.221Z,15.19
2022-10-23T07:29:58.491Z,15.19
2022-10-23T07:32:28.874Z,15.19
2022-10-23T07:38:00.197Z,15.20
2022-10-23T07:40:29.943Z,15.22
2022-10-23T07:42:57.309Z,15.21
2022-10-23T07:45:25.270Z,15.24
2022-10-23T07:47:53.171Z,15.27
2022-10-23T07:50:23.486Z,15.28
2022-10-23T07:52:50.412Z,15.29
2022-10-23T07:55:17.817Z,15.31
2022-10-23T07:57:49.023Z,15.31
2022-10-23T08:00:36.167Z,15.34
2022-10-23T08:03:12.793Z,15.35
2022-10-23T08:05:40.086Z,15.46
2022-10-23T08:08:06.887Z,15.53
2022-10-23T08:10:34.282Z,15.60
2022-10-23T08:13:01.426Z,15.65
2022-10-23T08:15:49.308Z,15.67
2022-10-23T08:18:36.129Z,15.69
2022-10-23T08:21:03.508Z,15.71
2022-10-23T08:23:30.430Z,15.74
2022-10-23T08:26:01.318Z,15.77
2022-10-23T08:28:31.055Z,15.80
2022-10-23T08:30:59.904Z,15.82
2022-10-23T08:33:27.271Z,15.83
2022-10-23T08:35:54.102Z,15.85
2022-10-23T08:38:28.793Z,15.87
2022-10-23T08:40:55.797Z,15.90
2022-10-23T08:43:35.318Z,15.91
2022-10-23T08:46:17.315Z,15.68
2022-10-23T08:49:15.526Z,15.97
2022-10-23T08:51:47.607Z,15.87
2022-10-23T08:54:16.260Z,16.04
2022-10-23T08:56:44.432Z,16.06
2022-10-23T08:59:20.356Z,16.09
2022-10-23T09:01:49.663Z,16.08
2022-10-23T09:04:16.604Z,16.16
2022-10-23T09:06:46.659Z,16.15
2022-10-23T09:09:35.260Z,16.22
2022-10-23T09:12:09.715Z,16.22
2022-10-23T09:15:04.340Z,16.26
2022-10-23T09:17:31.117Z,16.28
2022-10-23T09:20:21.068Z,16.33
2022-10-23T09:23:01.138Z,16.33
2022-10-23T09:25:38.176Z,16.37
2022-10-23T09:28:05.888Z,16.43
2022-10-23T09:30:35.165Z,16.48
2022-10-23T09:33:22.184Z,16.54
2022-10-23T09:35:53.048Z,16.43
2022-10-23T09:38:31.288Z,16.44
2022-10-23T09:41:00.337Z,16.49
2022-10-23T09:43:27.724Z,16.53
2022-10-23T09:46:02.852Z,16.58
2022-10-23T09:48:30.484Z,16.62
2022-10-23T09:50:59.569Z,16.69
2022-10-23T09:53:40.870Z,16.73
2022-10-23T09:56:24.764Z,16.78
2022-10-23T09:59:02.617Z,16.83
2022-10-23T10:01:31.230Z,16.87
2022-10-23T10:04:15.211Z,16.91
2022-10-23T10:09:15.523Z,17.03
2022-10-23T10:11:51.872Z,17.05
2022-10-23T10:14:39.804Z,17.14
2022-10-23T10:17:24.268Z,17.20
2022-10-23T10:20:07.229Z,17.27
2022-10-23T10:23:01.959Z,17.32
2022-10-23T10:25:47.442Z,17.38
2022-10-23T10:28:25.672Z,17.44
2022-10-23T10:31:05.722Z,17.50
2022-10-23T10:34:03.594Z,17.56
2022-10-23T10:36:57.415Z,17.64
2022-10-23T10:39:48.097Z,17.69
2022-10-23T10:42:33.433Z,17.78
2022-10-23T10:45:18.715Z,17.84
2022-10-23T10:48:04.038Z,17.92
2022-10-23T10:50:51.360Z,17.99
2022-10-23T10:53:57.851Z,18.08
2022-10-23T10:56:26.257Z,18.15
2022-10-23T10:58:54.724Z,18.23
2022-10-23T11:01:29.007Z,18.30
2022-10-23T11:04:13.579Z,18.35
2022-10-23T11:06:40.548Z,18.43
2022-10-23T11:09:26.897Z,18.51
2022-10-23T11:11:53.845Z,18.56
2022-10-23T11:14:25.303Z,18.61
2022-10-23T11:16:53.620Z,18.69
2022-10-23T11:19:29.034Z,18.61
2022-10-23T11:22:01.763Z,18.82
2022-10-23T11:24:51.478Z,18.87
2022-10-23T11:28:01.713Z,18.97
2022-10-23T11:30:46.659Z,19.02
2022-10-23T11:33:33.896Z,19.07
2022-10-23T11:36:13.146Z,19.18
2022-10-23T11:38:40.268Z,19.15
2022-10-23T11:41:29.542Z,19.33
2022-10-23T11:44:01.392Z,19.36
2022-10-23T11:46:35.999Z,19.46
2022-10-23T11:49:06.017Z,19.51
2022-10-23T11:51:37.474Z,19.60
2022-10-23T11:54:28.708Z,19.67
2022-10-23T11:57:10.362Z,19.74
2022-10-23T11:59:49.871Z,19.80
2022-10-23T12:02:39.918Z,19.83
2022-10-23T12:05:25.627Z,19.79
2022-10-23T12:07:59.918Z,19.93
2022-10-23T12:10:29.965Z,20.00
2022-10-23T12:13:01.679Z,20.08
2022-10-23T12:15:28.525Z,20.13
2022-10-23T12:17:56.099Z,20.18
2022-10-23T12:20:31.796Z,20.21
2022-10-23T12:23:23.523Z,20.29
2022-10-23T12:25:50.300Z,20.33
2022-10-23T12:28:32.235Z,20.38
2022-10-23T12:31:21.122Z,20.44
2022-10-23T12:34:10.413Z,20.49
2022-10-23T12:36:49.275Z,20.54
2022-10-23T12:39:29.158Z,20.59
2022-10-23T12:41:56.109Z,20.63
2022-10-23T12:44:24.331Z,20.57
2022-10-23T12:46:56.921Z,20.60
2022-10-23T12:49:25.541Z,20.78
2022-10-23T12:52:16.029Z,20.83
2022-10-23T12:54:42.971Z,20.85
2022-10-23T12:57:27.416Z,20.90
2022-10-23T13:00:10.335Z,20.94
2022-10-23T13:02:37.278Z,20.96
2022-10-23T13:05:07.349Z,20.99
2022-10-23T13:07:37.177Z,20.93
2022-10-23T13:10:05.267Z,21.05
2022-10-23T13:12:35.867Z,21.08
2022-10-23T13:15:09.027Z,21.11
2022-10-23T13:17:36.946Z,21.13
2022-10-23T13:20:18.896Z,21.17
2022-10-23T13:22:50.803Z,21.18
2022-10-23T13:25:31.153Z,21.22
2022-10-23T13:28:21.295Z,21.24
2022-10-23T13:31:01.132Z,21.27
2022-10-23T13:33:38.387Z,21.17
2022-10-23T13:36:07.262Z,21.32
2022-10-23T13:38:35.064Z,21.35
2022-10-23T13:41:03.447Z,21.39
2022-10-23T13:43:33.136Z,21.19
2022-10-23T13:46:00.376Z,21.45
2022-10-23T13:48:27.309Z,21.46
2022-10-23T13:50:54.340Z,21.50
2022-10-23T13:53:21.193Z,21.51
2022-10-23T13:55:52.533Z,21.54
2022-10-23T13:58:21.736Z,21.46
2022-10-23T14:00:49.601Z,21.45
2022-10-23T14:03:17.277Z,21.58
2022-10-23T14:05:44.191Z,21.59
2022-10-23T14:08:11.203Z,21.60
2022-10-23T14:10:38.012Z,21.61
2022-10-23T14:13:04.946Z,21.61
2022-10-23T14:15:31.874Z,21.62
2022-10-23T14:17:59.686Z,21.62
2022-10-23T14:20:29.425Z,21.63
2022-10-23T14:22:56.332Z,21.63
2022-10-23T14:25:23.179Z,21.53
2022-10-23T14:27:50.099Z,21.42
2022-10-23T14:30:17.044Z,21.64
2022-10-23T14:32:45.484Z,21.65
2022-10-23T14:35:12.614Z,21.66
2022-10-23T14:37:39.513Z,21.66
2022-10-23T14:40:07.207Z,21.68
2022-10-23T14:42:34.494Z,21.68
2022-10-23T14:45:02.657Z,21.67
2022-10-23T14:47:30.040Z,21.67
2022-10-23T14:49:57.380Z,21.65
2022-10-23T14:52:24.361Z,21.64
2022-10-23T14:54:53.154Z,21.64
2022-10-23T14:57:21.843Z,21.64
2022-10-23T14:59:49.176Z,21.65
2022-10-23T15:02:16.522Z,21.64
2022-10-23T15:04:43.549Z,21.50
2022-10-23T15:07:10.395Z,21.61
2022-10-23T15:09:37.482Z,21.61
2022-10-23T15:12:04.665Z,21.60
2022-10-23T15:14:31.807Z,21.57
2022-10-23T15:16:58.603Z,21.52
2022-10-23T15:19:25.468Z,21.55
2022-10-23T15:21:52.596Z,21.54
2022-10-23T15:24:20.831Z,21.54
2022-10-23T15:26:48.502Z,21.52
2022-10-23T15:29:15.664Z,21.51
2022-10-23T15:31:44.052Z,21.49
2022-10-23T15:34:13.063Z,21.50
2022-10-23T15:36:40.011Z,21.49
2022-10-23T15:39:08.942Z,21.48
2022-10-23T15:41:37.054Z,21.47
2022-10-23T15:44:04.282Z,21.44
2022-10-23T15:46:31.168Z,21.43
2022-10-23T15:48:58.019Z,21.34
2022-10-23T15:51:24.900Z,21.40
2022-10-23T15:53:51.786Z,21.37
2022-10-23T15:56:18.631Z,21.34
2022-10-23T15:58:45.729Z,21.31
2022-10-23T16:01:12.834Z,21.28
2022-10-23T16:03:39.827Z,21.25
2022-10-23T16:06:07.931Z,21.23
2022-10-23T16:08:34.811Z,21.21
2022-10-23T16:11:02.001Z,21.18
2022-10-23T16:13:28.911Z,21.16
2022-10-23T16:15:55.763Z,21.13
2022-10-23T16:18:23.012Z,21.10
2022-10-23T16:20:55.105Z,21.07
2022-10-23T16:23:22.308Z,21.05
2022-10-23T16:25:49.238Z,21.00
2022-10-23T16:28:16.074Z,20.98
2022-10-23T16:30:43.394Z,20.96
2022-10-23T16:33:10.301Z,20.94
2022-10-23T16:35:37.338Z,20.90
2022-10-23T16:38:12.321Z,20.87
2022-10-23T16:40:39.286Z,20.85
2022-10-23T16:43:25.000Z,20.80
2022-10-23T16:46:02.629Z,20.76
2022-10-23T16:48:30.099Z,20.71
2022-10-23T16:50:56.954Z,20.65
2022-10-23T16:53:28.817Z,20.61
2022-10-23T16:55:56.795Z,20.61
2022-10-23T16:58:27.300Z,20.57
2022-10-23T17:01:01.880Z,20.54
2022-10-23T17:03:29.963Z,20.49
2022-10-23T17:06:06.116Z,20.46
2022-10-23T17:08:35.908Z,20.41
2022-10-23T17:11:07.346Z,20.37
2022-10-23T17:13:34.783Z,20.33
2022-10-23T17:16:22.014Z,20.29
2022-10-23T17:18:48.974Z,20.23
2022-10-23T17:21:16.646Z,20.20
2022-10-23T17:23:43.694Z,20.18
2022-10-23T17:26:11.977Z,20.30
2022-10-23T17:28:41.648Z,20.28
2022-10-23T17:31:22.412Z,20.32
2022-10-23T17:33:51.557Z,20.28
2022-10-23T17:36:18.835Z,20.24
2022-10-23T17:38:45.995Z,20.22
2022-10-23T17:41:14.346Z,20.16
2022-10-23T17:43:41.432Z,20.14
2022-10-23T17:46:09.126Z,19.95
2022-10-23T17:48:36.010Z,20.07
2022-10-23T17:51:10.748Z,19.96
2022-10-23T17:53:38.379Z,19.96
2022-10-23T17:56:06.735Z,19.92
2022-10-23T17:58:34.008Z,19.87
2022-10-23T18:01:20.767Z,19.81
2022-10-23T18:03:47.900Z,19.78
2022-10-23T18:06:22.440Z,19.76
2022-10-23T18:08:51.720Z,19.57
2022-10-23T18:11:21.829Z,19.65
2022-10-23T18:13:49.126Z,19.60
2022-10-23T18:16:16.373Z,19.57
2022-10-23T18:18:48.184Z,19.54
2022-10-23T18:21:16.243Z,19.51
2022-10-23T18:23:43.171Z,19.47
2022-10-23T18:26:17.840Z,19.43
2022-10-23T18:28:45.596Z,19.36
2022-10-23T18:31:12.655Z,19.37
2022-10-23T18:33:39.690Z,19.33
2022-10-23T18:36:36.778Z,19.30
2022-10-23T18:39:04.435Z,19.26
2022-10-23T18:41:38.589Z,19.24
2022-10-23T18:44:05.680Z,19.19
2022-10-23T18:46:32.633Z,19.14
2022-10-23T18:48:59.507Z,19.09
2022-10-23T18:51:28.742Z,18.95
2022-10-23T18:53:55.737Z,19.01
2022-10-23T18:56:24.092Z,18.99
2022-10-23T18:58:51.256Z,18.96
2022-10-23T19:01:19.028Z,18.86
2022-10-23T19:03:46.090Z,18.89
2022-10-23T19:06:13.061Z,18.86
2022-10-23T19:08:41.133Z,18.83
2022-10-23T19:11:08.278Z,18.78
2022-10-23T19:13:39.134Z,18.72
2022-10-23T19:16:08.599Z,18.71
2022-10-23T19:18:35.438Z,18.69
2022-10-23T19:21:05.480Z,18.67
2022-10-23T19:23:35.667Z,18.63
2022-10-23T19:26:05.393Z,18.48
2022-10-23T19:28:36.696Z,18.55
2022-10-23T19:31:04.697Z,18.55
2022-10-23T19:33:32.649Z,18.51
2022-10-23T19:36:03.675Z,18.50
2022-10-23T19:38:32.574Z,18.47
2022-10-23T19:40:59.415Z,18.44
2022-10-23T19:43:26.229Z,18.44
2022-10-23T19:45:53.226Z,18.36
2022-10-23T19:48:20.144Z,18.29
2022-10-23T19:50:46.963Z,18.25
2022-10-23T19:53:13.828Z,18.19
2022-10-23T19:55:40.635Z,18.15
2022-10-23T19:58:07.445Z,18.05
2022-10-23T20:00:34.318Z,18.00
2022-10-23T20:03:01.153Z,17.97
2022-10-23T20:05:28.036Z,17.93
2022-10-23T20:07:55.141Z,17.88
2022-10-23T20:10:21.977Z,17.85
2022-10-23T20:12:56.761Z,17.80
2022-10-23T20:15:38.142Z,17.78
2022-10-23T20:18:05.284Z,17.76
2022-10-23T20:20:32.189Z,17.73
2022-10-23T20:22:59.076Z,17.70
2022-10-23T20:25:26.798Z,17.64
2022-10-23T20:27:53.601Z,17.65
2022-10-23T20:30:20.479Z,17.64
2022-10-23T20:32:47.356Z,17.63
2022-10-23T20:35:14.286Z,17.60
2022-10-23T20:37:41.403Z,17.56
2022-10-23T20:40:08.779Z,17.52
2022-10-23T20:42:35.586Z,17.50
2022-10-23T20:45:03.569Z,17.45
2022-10-23T20:47:30.527Z,17.39
2022-10-23T20:49:57.350Z,17.38
2022-10-23T20:52:24.538Z,17.37
2022-10-23T20:54:51.339Z,17.33
2022-10-23T20:57:20.640Z,17.32
2022-10-23T20:59:48.331Z,17.27
2022-10-23T21:02:15.302Z,17.28
2022-10-23T21:04:42.289Z,17.25
2022-10-23T21:07:10.882Z,17.30
2022-10-23T21:09:38.682Z,17.31
2022-10-23T21:12:06.672Z,17.32
2022-10-23T21:14:34.039Z,17.27
2022-10-23T21:17:00.870Z,17.32
2022-10-23T21:19:27.772Z,17.28
2022-10-23T21:21:54.868Z,17.26
2022-10-23T21:24:21.761Z,17.25
2022-10-23T21:26:48.629Z,17.21
2022-10-23T21:29:19.895Z,17.14
2022-10-23T21:31:58.189Z,17.05
2022-10-23T21:34:25.488Z,16.97
2022-10-23T21:37:12.971Z,16.93
2022-10-23T21:39:39.345Z,16.90
2022-10-23T21:42:06.226Z,16.88
2022-10-23T21:44:33.058Z,16.85
2022-10-23T21:46:59.969Z,16.81
2022-10-23T21:49:26.895Z,16.82
2022-10-23T21:51:55.078Z,16.80
2022-10-23T21:54:22.200Z,16.66
2022-10-23T21:56:53.579Z,16.67
2022-10-23T21:59:22.444Z,16.73
2022-10-23T22:01:49.410Z,16.71
2022-10-23T22:04:19.900Z,16.68
2022-10-23T22:06:47.492Z,16.54
2022-10-23T22:09:15.834Z,16.65
2022-10-23T22:11:42.746Z,16.63
2022-10-23T22:14:09.554Z,16.53
2022-10-23T22:16:36.486Z,16.47
2022-10-23T22:19:03.539Z,16.57
2022-10-23T22:21:30.630Z,16.55
2022-10-23T22:23:58.487Z,16.54
2022-10-23T22:26:30.369Z,16.38
2022-10-23T22:28:58.985Z,16.50
2022-10-23T22:31:29.186Z,16.49
2022-10-23T22:33:56.215Z,16.47
2022-10-23T22:36:23.138Z,16.45
2022-10-23T22:38:49.956Z,16.60
2022-10-23T22:41:16.840Z,16.61
2022-10-23T22:43:43.713Z,16.61
2022-10-23T22:46:15.469Z,16.60
2022-10-23T22:48:42.467Z,16.57
2022-10-23T22:51:10.945Z,16.54
2022-10-23T22:53:37.823Z,16.51
2022-10-23T22:56:08.765Z,16.51
2022-10-23T22:58:35.713Z,16.48
2022-10-23T23:01:10.238Z,16.50
2022-10-23T23:03:37.202Z,16.48
2022-10-23T23:06:04.885Z,16.44
2022-10-23T23:08:31.801Z,16.43
2022-10-23T23:10:58.679Z,16.42
2022-10-23T23:13:25.574Z,16.40
2022-10-23T23:15:52.573Z,16.41
2022-10-23T23:18:19.396Z,16.38
2022-10-23T23:20:46.245Z,16.39
2022-10-23T23:23:14.184Z,16.37
2022-10-23T23:25:47.960Z,16.39
2022-10-23T23:28:15.803Z,16.37
2022-10-23T23:30:42.846Z,16.35
2022-10-23T23:33:09.997Z,16.35
2022-10-23T23:35:44.064Z,16.34
2022-10-23T23:38:11.401Z,16.29
2022-10-23T23:40:38.334Z,16.28
2022-10-23T23:43:05.409Z,16.29
2022-10-23T23:45:32.369Z,16.27
2022-10-23T23:47:59.191Z,16.26
2022-10-23T23:50:27.981Z,16.22
2022-10-23T23:52:54.930Z,16.25
2022-10-23T23:55:21.809Z,16.24
2022-10-23T23:57:48.657Z,16.24
